^^
Your Local Weather - Clay, NY Station Historical Data
Daily Summary for September 24, 2017 Units:  English    Metric   Both
« Previous Day
Next Day »
Daily Weekly Monthly Yearly Custom
  High: Low: Average:
Temperature: 88.1 °F 58.6 °F 71.7 °F
Dew Point: 72.7 °F 56.9 °F 64.3 °F
Humidity: 95% 52% 79%
Wind Speed: 3.0mph 0.0mph 0.3mph
Wind Gust: 6.0mph - -
Wind- - WSW
Pressure: 30.10 in 30.01 in -
Precipitation: 0.00 in    
Historical Graphs
 
 
Tabular Data for September 24, 2017
Time Temperature Dew Point Pressure Wind Wind Speed Wind Gust Humidity Rainfall Rate (Hourly) solar
00:00 62.4 °F 59.7 °F 30.05 in Calm     91% 0.00 in 0 W/m2
00:06 62.3 °F 59.3 °F 30.05 in Calm     90% 0.00 in 0 W/m2
00:12 62.3 °F 59.6 °F 30.05 in Calm     91% 0.00 in 0 W/m2
00:18 62.2 °F 59.5 °F 30.05 in Calm     91% 0.00 in 0 W/m2
00:26 62.1 °F 59.4 °F 30.04 in Calm     91% 0.00 in 0 W/m2
00:32 62.2 °F 59.5 °F 30.05 in Calm     91% 0.00 in 0 W/m2
00:38 62.0 °F 59.3 °F 30.05 in Calm     91% 0.00 in 0 W/m2
00:44 62.1 °F 59.4 °F 30.05 in Calm     91% 0.00 in 0 W/m2
00:50 62.0 °F 59.3 °F 30.05 in Calm     91% 0.00 in 0 W/m2
00:56 62.0 °F 59.3 °F 30.05 in Calm     91% 0.00 in 0 W/m2
01:02 62.0 °F 59.6 °F 30.05 in Calm     92% 0.00 in 0 W/m2
01:14 61.9 °F 59.5 °F 30.05 in Calm     92% 0.00 in 0 W/m2
01:20 61.8 °F 59.5 °F 30.05 in Calm     92% 0.00 in 0 W/m2
01:32 61.6 °F 59.3 °F 30.05 in Calm     92% 0.00 in 0 W/m2
01:38 61.6 °F 59.3 °F 30.05 in Calm     92% 0.00 in 0 W/m2
01:44 61.5 °F 59.2 °F 30.05 in Calm     92% 0.00 in 0 W/m2
01:50 61.5 °F 59.2 °F 30.05 in Calm     92% 0.00 in 0 W/m2
01:56 61.3 °F 59.0 °F 30.05 in Calm     92% 0.00 in 0 W/m2
02:02 61.2 °F 58.9 °F 30.05 in Calm     92% 0.00 in 0 W/m2
02:08 61.1 °F 58.8 °F 30.05 in Calm     92% 0.00 in 0 W/m2
02:14 61.0 °F 58.7 °F 30.05 in Calm     92% 0.00 in 0 W/m2
02:20 61.0 °F 58.7 °F 30.05 in Calm     92% 0.00 in 0 W/m2
02:26 61.0 °F 58.7 °F 30.05 in Calm     92% 0.00 in 0 W/m2
02:32 60.9 °F 58.9 °F 30.05 in Calm     93% 0.00 in 0 W/m2
02:38 60.8 °F 58.8 °F 30.05 in Calm     93% 0.00 in 0 W/m2
02:44 60.7 °F 58.7 °F 30.06 in Calm     93% 0.00 in 0 W/m2
02:50 60.7 °F 58.7 °F 30.06 in Calm     93% 0.00 in 0 W/m2
02:56 60.6 °F 58.6 °F 30.05 in Calm     93% 0.00 in 0 W/m2
03:02 60.6 °F 58.6 °F 30.06 in Calm     93% 0.00 in 0 W/m2
03:08 60.6 °F 58.6 °F 30.06 in Calm     93% 0.00 in 0 W/m2
03:14 60.6 °F 58.6 °F 30.06 in Calm     93% 0.00 in 0 W/m2
03:20 60.6 °F 58.6 °F 30.06 in Calm     93% 0.00 in 0 W/m2
03:26 60.6 °F 58.6 °F 30.06 in Calm     93% 0.00 in 0 W/m2
03:32 60.7 °F 58.7 °F 30.06 in Calm     93% 0.00 in 0 W/m2
03:38 60.7 °F 58.7 °F 30.06 in Calm     93% 0.00 in 0 W/m2
03:50 60.6 °F 58.6 °F 30.06 in Calm     93% 0.00 in 0 W/m2
03:56 60.4 °F 58.4 °F 30.06 in Calm     93% 0.00 in 0 W/m2
04:02 60.3 °F 58.3 °F 30.07 in Calm     93% 0.00 in 0 W/m2
04:08 60.2 °F 58.2 °F 30.07 in Calm     93% 0.00 in 0 W/m2
04:14 60.2 °F 58.2 °F 30.07 in Calm     93% 0.00 in 0 W/m2
04:20 60.2 °F 58.2 °F 30.07 in Calm     93% 0.00 in 0 W/m2
04:26 60.1 °F 58.1 °F 30.07 in Calm     93% 0.00 in 0 W/m2
04:32 59.9 °F 57.9 °F 30.07 in Calm     93% 0.00 in 0 W/m2
04:38 59.8 °F 58.1 °F 30.07 in Calm     94% 0.00 in 0 W/m2
04:44 59.8 °F 58.1 °F 30.07 in Calm     94% 0.00 in 0 W/m2
04:50 59.8 °F 58.1 °F 30.07 in Calm     94% 0.00 in 0 W/m2
04:56 59.8 °F 58.1 °F 30.07 in Calm     94% 0.00 in 0 W/m2
05:02 59.7 °F 58.0 °F 30.07 in Calm     94% 0.00 in 0 W/m2
05:08 59.6 °F 57.9 °F 30.07 in Calm     94% 0.00 in 0 W/m2
05:16 59.6 °F 57.9 °F 30.07 in Calm     94% 0.00 in 0 W/m2
05:22 59.5 °F 57.8 °F 30.07 in Calm     94% 0.00 in 0 W/m2
05:28 59.5 °F 57.8 °F 30.07 in Calm     94% 0.00 in 0 W/m2
05:40 59.2 °F 57.5 °F 30.07 in Calm     94% 0.00 in 0 W/m2
05:46 59.2 °F 57.5 °F 30.07 in Calm     94% 0.00 in 0 W/m2
05:52 59.2 °F 57.5 °F 30.07 in Calm     94% 0.00 in 0 W/m2
05:58 59.3 °F 57.6 °F 30.07 in Calm     94% 0.00 in 0 W/m2
06:04 59.3 °F 57.6 °F 30.07 in Calm     94% 0.00 in 0 W/m2
06:10 59.1 °F 57.4 °F 30.07 in Calm     94% 0.00 in 0 W/m2
06:16 58.9 °F 57.2 °F 30.08 in Calm     94% 0.00 in 0 W/m2
06:22 58.9 °F 57.2 °F 30.08 in Calm     94% 0.00 in 0 W/m2
06:28 58.8 °F 57.1 °F 30.08 in Calm     94% 0.00 in 0 W/m2
06:34 58.8 °F 57.1 °F 30.08 in Calm     94% 0.00 in 0 W/m2
06:40 58.7 °F 57.0 °F 30.08 in Calm     94% 0.00 in 0 W/m2
06:46 58.6 °F 56.9 °F 30.08 in Calm     94% 0.00 in 0 W/m2
06:52 58.6 °F 56.9 °F 30.08 in Calm     94% 0.00 in 0 W/m2
06:58 58.6 °F 56.9 °F 30.08 in Calm     94% 0.00 in 5 W/m2
07:04 58.6 °F 56.9 °F 30.08 in Calm     94% 0.00 in 7 W/m2
07:10 58.8 °F 57.1 °F 30.08 in Calm     94% 0.00 in 11 W/m2
07:16 58.9 °F 57.2 °F 30.09 in Calm     94% 0.00 in 14 W/m2
07:22 58.8 °F 57.1 °F 30.09 in Calm     94% 0.00 in 18 W/m2
07:28 58.9 °F 57.2 °F 30.09 in Calm     94% 0.00 in 21 W/m2
07:40 59.1 °F 57.4 °F 30.09 in Calm     94% 0.00 in 28 W/m2
07:46 59.3 °F 57.6 °F 30.09 in Calm     94% 0.00 in 33 W/m2
07:52 59.5 °F 57.8 °F 30.09 in Calm     94% 0.00 in 35 W/m2
07:58 59.9 °F 58.5 °F 30.09 in Calm     95% 0.00 in 53 W/m2
08:04 60.3 °F 58.6 °F 30.09 in Calm     94% 0.00 in 47 W/m2
08:10 60.4 °F 58.7 °F 30.09 in Calm     94% 0.00 in 91 W/m2
08:16 60.9 °F 59.5 °F 30.09 in Calm     95% 0.00 in 53 W/m2
08:22 61.6 °F 60.2 °F 30.09 in Calm     95% 0.00 in 56 W/m2
08:28 62.2 °F 60.8 °F 30.10 in Calm     95% 0.00 in 56 W/m2
08:34 62.7 °F 61.2 °F 30.10 in Calm     95% 0.00 in 72 W/m2
08:42 63.5 °F 62.0 °F 30.10 in Calm     95% 0.00 in 104 W/m2
08:48 64.2 °F 62.7 °F 30.10 in Calm     95% 0.00 in 63 W/m2
08:54 64.8 °F 63.3 °F 30.10 in Calm     95% 0.00 in 72 W/m2
09:00 65.7 °F 64.2 °F 30.10 in Calm     95% 0.00 in 70 W/m2
09:06 66.1 °F 64.6 °F 30.10 in Calm     95% 0.00 in 65 W/m2
09:12 66.9 °F 65.1 °F 30.10 in Calm     94% 0.00 in 69 W/m2
09:18 67.8 °F 65.7 °F 30.10 in West 1.0 mph 1.0 mph 93% 0.00 in 118 W/m2
09:24 69.0 °F 65.9 °F 30.10 in SW 1.0 mph 2.0 mph 90% 0.00 in 79 W/m2
09:30 69.9 °F 65.9 °F 30.10 in SW 1.0 mph 1.0 mph 87% 0.00 in 288 W/m2
09:36 70.7 °F 65.6 °F 30.10 in Calm   1.0 mph 84% 0.00 in 83 W/m2
09:42 71.6 °F 65.8 °F 30.10 in Calm     82% 0.00 in 411 W/m2
09:48 73.2 °F 66.3 °F 30.10 in Calm     79% 0.00 in 438 W/m2
09:54 74.7 °F 66.6 °F 30.10 in Calm     76% 0.00 in 450 W/m2
10:00 75.2 °F 66.7 °F 30.10 in Calm   3.0 mph 75% 0.00 in 466 W/m2
10:06 76.0 °F 67.1 °F 30.10 in Calm   3.0 mph 74% 0.00 in 483 W/m2
10:12 76.4 °F 67.9 °F 30.10 in North 1.0 mph 2.0 mph 75% 0.00 in 501 W/m2
10:18 76.4 °F 66.7 °F 30.10 in North 1.0 mph 2.0 mph 72% 0.00 in 517 W/m2
10:24 77.0 °F 67.7 °F 30.10 in North 1.0 mph 1.0 mph 73% 0.00 in 531 W/m2
10:30 78.1 °F 67.9 °F 30.10 in Calm   1.0 mph 71% 0.00 in 545 W/m2
10:36 77.5 °F 67.4 °F 30.10 in Calm   1.0 mph 71% 0.00 in 555 W/m2
10:42 78.2 °F 66.8 °F 30.10 in Calm     68% 0.00 in 571 W/m2
10:48 78.6 °F 68.8 °F 30.10 in Calm   1.0 mph 72% 0.00 in 584 W/m2
10:54 79.2 °F 68.6 °F 30.09 in Calm     70% 0.00 in 594 W/m2
11:00 80.0 °F 70.6 °F 30.09 in Calm   3.0 mph 73% 0.00 in 608 W/m2
11:06 79.6 °F 68.5 °F 30.08 in NNE 1.0 mph 4.0 mph 69% 0.00 in 619 W/m2
11:12 79.8 °F 69.6 °F 30.08 in SSW 1.0 mph 1.0 mph 71% 0.00 in 629 W/m2
11:18 80.2 °F 67.8 °F 30.08 in Calm   1.0 mph 66% 0.00 in 638 W/m2
11:24 80.8 °F 67.9 °F 30.08 in NNW 1.0 mph 4.0 mph 65% 0.00 in 647 W/m2
11:30 81.1 °F 71.2 °F 30.08 in NNE 2.0 mph 3.0 mph 72% 0.00 in 654 W/m2
11:36 81.6 °F 68.7 °F 30.08 in North 1.0 mph 3.0 mph 65% 0.00 in 664 W/m2
11:42 81.3 °F 70.2 °F 30.08 in North 2.0 mph 2.0 mph 69% 0.00 in 671 W/m2
11:48 82.0 °F 70.4 °F 30.08 in North 1.0 mph 3.0 mph 68% 0.00 in 677 W/m2
11:54 82.4 °F 69.0 °F 30.08 in North 1.0 mph 1.0 mph 64% 0.00 in 684 W/m2
12:00 82.1 °F 68.7 °F 30.08 in NNW 1.0 mph 1.0 mph 64% 0.00 in 686 W/m2
12:06 82.7 °F 69.3 °F 30.08 in NNW 1.0 mph 1.0 mph 64% 0.00 in 693 W/m2
12:12 82.3 °F 68.0 °F 30.08 in North 1.0 mph 2.0 mph 62% 0.00 in 696 W/m2
12:18 82.3 °F 68.9 °F 30.08 in NW 2.0 mph 6.0 mph 64% 0.00 in 698 W/m2
12:24 82.8 °F 68.4 °F 30.07 in NW 2.0 mph 2.0 mph 62% 0.00 in 705 W/m2
12:30 83.1 °F 68.3 °F 30.07 in NW 1.0 mph 3.0 mph 61% 0.00 in 705 W/m2
12:36 83.5 °F 70.9 °F 30.07 in WNW 1.0 mph 3.0 mph 66% 0.00 in 708 W/m2
12:42 82.9 °F 68.5 °F 30.07 in NNW 1.0 mph 5.0 mph 62% 0.00 in 705 W/m2
12:48 83.9 °F 70.4 °F 30.07 in WSW 1.0 mph 5.0 mph 64% 0.00 in 703 W/m2
12:54 84.6 °F 68.7 °F 30.07 in NNW 1.0 mph 2.0 mph 59% 0.00 in 708 W/m2
13:00 85.2 °F 70.2 °F 30.06 in North 1.0 mph 1.0 mph 61% 0.00 in 705 W/m2
13:06 84.7 °F 67.8 °F 30.06 in West 1.0 mph 2.0 mph 57% 0.00 in 708 W/m2
13:12 84.9 °F 69.5 °F 30.06 in NNE 1.0 mph 1.0 mph 60% 0.00 in 707 W/m2
13:18 84.7 °F 68.3 °F 30.06 in SW 1.0 mph 1.0 mph 58% 0.00 in 701 W/m2
13:24 84.8 °F 69.4 °F 30.05 in Calm   4.0 mph 60% 0.00 in 701 W/m2
13:30 85.5 °F 68.5 °F 30.05 in NW 1.0 mph 1.0 mph 57% 0.00 in 705 W/m2
13:36 85.7 °F 68.7 °F 30.05 in North 1.0 mph 5.0 mph 57% 0.00 in 696 W/m2
13:42 85.9 °F 71.8 °F 30.05 in SSW 2.0 mph 4.0 mph 63% 0.00 in 694 W/m2
13:48 86.1 °F 70.6 °F 30.05 in SW 1.0 mph 4.0 mph 60% 0.00 in 686 W/m2
13:54 86.6 °F 69.6 °F 30.05 in Calm   3.0 mph 57% 0.00 in 684 W/m2
14:00 86.3 °F 68.8 °F 30.05 in SSW 1.0 mph 1.0 mph 56% 0.00 in 679 W/m2
14:06 86.7 °F 72.1 °F 30.05 in SSW 1.0 mph 1.0 mph 62% 0.00 in 677 W/m2
14:12 86.8 °F 72.7 °F 30.05 in NNW 1.0 mph 2.0 mph 63% 0.00 in 661 W/m2
14:18 87.0 °F 68.9 °F 30.05 in NNW 1.0 mph 2.0 mph 55% 0.00 in 657 W/m2
14:24 86.7 °F 70.2 °F 30.04 in Calm   1.0 mph 58% 0.00 in 645 W/m2
14:30 86.5 °F 68.9 °F 30.04 in NNW 1.0 mph 2.0 mph 56% 0.00 in 633 W/m2
14:36 87.4 °F 71.3 °F 30.03 in NNW 1.0 mph 2.0 mph 59% 0.00 in 633 W/m2
14:42 87.5 °F 70.9 °F 30.03 in Calm   1.0 mph 58% 0.00 in 622 W/m2
14:48 86.9 °F 69.3 °F 30.03 in SW 1.0 mph 2.0 mph 56% 0.00 in 606 W/m2
14:54 87.3 °F 71.7 °F 30.03 in SSW 1.0 mph 1.0 mph 60% 0.00 in 603 W/m2
15:00 87.4 °F 69.8 °F 30.03 in Calm     56% 0.00 in 592 W/m2
15:06 87.8 °F 68.5 °F 30.03 in WNW 1.0 mph 3.0 mph 53% 0.00 in 582 W/m2
15:12 87.8 °F 69.6 °F 30.03 in NW 1.0 mph 2.0 mph 55% 0.00 in 570 W/m2
15:18 87.7 °F 67.9 °F 30.03 in WNW 1.0 mph 3.0 mph 52% 0.00 in 557 W/m2
15:24 87.8 °F 70.7 °F 30.03 in NW 1.0 mph 4.0 mph 57% 0.00 in 548 W/m2
15:30 87.5 °F 67.7 °F 30.03 in WSW 1.0 mph 1.0 mph 52% 0.00 in 529 W/m2
15:36 88.1 °F 69.4 °F 30.03 in SW 1.0 mph 2.0 mph 54% 0.00 in 517 W/m2
15:42 87.9 °F 70.8 °F 30.03 in WNW 1.0 mph 5.0 mph 57% 0.00 in 506 W/m2
15:48 87.9 °F 68.1 °F 30.03 in NNW 2.0 mph 5.0 mph 52% 0.00 in 489 W/m2
15:54 87.2 °F 67.4 °F 30.02 in North 2.0 mph 6.0 mph 52% 0.00 in 475 W/m2
16:00 87.0 °F 67.2 °F 30.02 in North 3.0 mph 3.0 mph 52% 0.00 in 457 W/m2
16:06 87.2 °F 68.0 °F 30.02 in NNW 2.0 mph 3.0 mph 53% 0.00 in 439 W/m2
16:12 87.6 °F 68.4 °F 30.02 in NW 1.0 mph 1.0 mph 53% 0.00 in 429 W/m2
16:18 87.4 °F 67.6 °F 30.02 in NW 1.0 mph 5.0 mph 52% 0.00 in 410 W/m2
16:24 87.1 °F 67.9 °F 30.02 in NW 1.0 mph 1.0 mph 53% 0.00 in 397 W/m2
16:30 87.1 °F 67.9 °F 30.02 in North 1.0 mph 1.0 mph 53% 0.00 in 381 W/m2
16:36 87.5 °F 68.8 °F 30.02 in North 1.0 mph 1.0 mph 54% 0.00 in 366 W/m2
16:42 87.4 °F 68.7 °F 30.02 in Calm     54% 0.00 in 350 W/m2
16:48 87.0 °F 69.4 °F 30.02 in Calm     56% 0.00 in 329 W/m2
16:54 86.8 °F 69.7 °F 30.01 in NNW 1.0 mph 2.0 mph 57% 0.00 in 313 W/m2
17:00 86.5 °F 68.4 °F 30.02 in Calm     55% 0.00 in 297 W/m2
17:06 86.0 °F 69.5 °F 30.02 in Calm   2.0 mph 58% 0.00 in 278 W/m2
17:12 85.8 °F 68.8 °F 30.02 in NW 1.0 mph 1.0 mph 57% 0.00 in 262 W/m2
17:18 85.7 °F 69.2 °F 30.02 in NW 1.0 mph 2.0 mph 58% 0.00 in 244 W/m2
17:24 85.3 °F 69.8 °F 30.02 in Calm   1.0 mph 60% 0.00 in 227 W/m2
17:30 85.0 °F 68.1 °F 30.02 in Calm   4.0 mph 57% 0.00 in 200 W/m2
17:36 84.7 °F 68.8 °F 30.02 in NNW 1.0 mph 4.0 mph 59% 0.00 in 114 W/m2
17:42 84.3 °F 67.9 °F 30.02 in NNW 1.0 mph 1.0 mph 58% 0.00 in 165 W/m2
17:48 84.0 °F 68.6 °F 30.02 in NNW 1.0 mph 1.0 mph 60% 0.00 in 155 W/m2
17:54 83.7 °F 67.4 °F 30.02 in NNW 1.0 mph 1.0 mph 58% 0.00 in 139 W/m2
18:00 83.4 °F 67.6 °F 30.02 in Calm     59% 0.00 in 86 W/m2
18:06 83.0 °F 67.7 °F 30.02 in Calm     60% 0.00 in 33 W/m2
18:12 82.4 °F 67.6 °F 30.02 in Calm     61% 0.00 in 28 W/m2
18:18 81.8 °F 67.5 °F 30.02 in Calm     62% 0.00 in 25 W/m2
18:24 81.3 °F 67.5 °F 30.02 in Calm     63% 0.00 in 23 W/m2
18:30 80.8 °F 69.2 °F 30.02 in Calm     68% 0.00 in 19 W/m2
18:36 80.2 °F 69.1 °F 30.02 in Calm     69% 0.00 in 16 W/m2
18:42 79.6 °F 69.0 °F 30.02 in Calm     70% 0.00 in 12 W/m2
18:48 78.8 °F 69.0 °F 30.02 in Calm     72% 0.00 in 9 W/m2
18:54 77.9 °F 68.9 °F 30.02 in Calm     74% 0.00 in 5 W/m2
19:00 76.9 °F 68.4 °F 30.02 in Calm     75% 0.00 in 0 W/m2
19:06 76.3 °F 68.2 °F 30.02 in Calm     76% 0.00 in 0 W/m2
19:12 75.7 °F 67.6 °F 30.03 in Calm     76% 0.00 in 0 W/m2
19:18 75.0 °F 67.7 °F 30.03 in Calm     78% 0.00 in 0 W/m2
19:24 74.5 °F 67.6 °F 30.03 in Calm     79% 0.00 in 0 W/m2
19:30 73.8 °F 67.6 °F 30.03 in Calm     81% 0.00 in 0 W/m2
19:36 73.3 °F 67.5 °F 30.03 in Calm     82% 0.00 in 0 W/m2
19:48 72.4 °F 66.6 °F 30.03 in Calm     82% 0.00 in 0 W/m2
19:54 72.1 °F 66.6 °F 30.03 in Calm     83% 0.00 in 0 W/m2
20:00 71.8 °F 66.4 °F 30.03 in Calm     83% 0.00 in 0 W/m2
20:06 71.5 °F 66.4 °F 30.03 in Calm     84% 0.00 in 0 W/m2
20:12 71.2 °F 66.1 °F 30.03 in Calm     84% 0.00 in 0 W/m2
20:18 70.8 °F 66.1 °F 30.03 in Calm     85% 0.00 in 0 W/m2
20:26 70.5 °F 66.1 °F 30.03 in Calm     86% 0.00 in 0 W/m2
20:32 70.3 °F 66.2 °F 30.04 in Calm     87% 0.00 in 0 W/m2
20:38 70.1 °F 66.0 °F 30.04 in Calm     87% 0.00 in 0 W/m2
20:44 69.9 °F 65.9 °F 30.04 in Calm     87% 0.00 in 0 W/m2
20:50 69.7 °F 66.0 °F 30.03 in Calm     88% 0.00 in 0 W/m2
20:56 69.6 °F 65.9 °F 30.03 in Calm     88% 0.00 in 0 W/m2
21:02 69.3 °F 65.6 °F 30.03 in Calm     88% 0.00 in 0 W/m2
21:08 69.1 °F 65.4 °F 30.03 in Calm     88% 0.00 in 0 W/m2
21:14 68.9 °F 65.5 °F 30.04 in Calm     89% 0.00 in 0 W/m2
21:20 68.8 °F 65.4 °F 30.04 in Calm     89% 0.00 in 0 W/m2
21:26 68.6 °F 65.2 °F 30.04 in Calm     89% 0.00 in 0 W/m2
21:32 68.5 °F 65.4 °F 30.04 in Calm     90% 0.00 in 0 W/m2
21:38 68.2 °F 64.8 °F 30.04 in Calm     89% 0.00 in 0 W/m2
21:44 68.0 °F 64.6 °F 30.04 in Calm     89% 0.00 in 0 W/m2
21:50 67.8 °F 64.8 °F 30.04 in Calm     90% 0.00 in 0 W/m2
21:56 67.8 °F 64.8 °F 30.04 in Calm     90% 0.00 in 0 W/m2
22:02 67.7 °F 64.7 °F 30.04 in Calm     90% 0.00 in 0 W/m2
22:08 67.5 °F 64.5 °F 30.04 in Calm     90% 0.00 in 0 W/m2
22:14 67.5 °F 64.8 °F 30.05 in Calm     91% 0.00 in 0 W/m2
22:20 67.4 °F 64.7 °F 30.05 in Calm     91% 0.00 in 0 W/m2
22:26 67.2 °F 64.5 °F 30.05 in Calm     91% 0.00 in 0 W/m2
22:32 67.0 °F 64.3 °F 30.05 in Calm     91% 0.00 in 0 W/m2
22:38 66.7 °F 64.0 °F 30.04 in Calm     91% 0.00 in 0 W/m2
22:44 66.7 °F 64.0 °F 30.04 in Calm     91% 0.00 in 0 W/m2
22:50 66.7 °F 64.0 °F 30.04 in Calm     91% 0.00 in 0 W/m2
22:56 66.5 °F 63.8 °F 30.04 in Calm     91% 0.00 in 0 W/m2
23:02 66.3 °F 63.6 °F 30.04 in Calm     91% 0.00 in 0 W/m2
23:08 66.1 °F 63.7 °F 30.04 in Calm     92% 0.00 in 0 W/m2
23:22 66.2 °F 63.8 °F 30.05 in Calm     92% 0.00 in 0 W/m2
23:24 66.3 °F 63.9 °F 30.04 in Calm     92% 0.00 in 0 W/m2
23:26 66.2 °F 63.8 °F 30.04 in Calm     92% 0.00 in 0 W/m2
23:32 66.1 °F 63.7 °F 30.04 in Calm     92% 0.00 in 0 W/m2
23:38 66.1 °F 63.7 °F 30.04 in Calm     92% 0.00 in 0 W/m2
23:44 66.0 °F 63.6 °F 30.05 in Calm     92% 0.00 in 0 W/m2
23:50 65.7 °F 63.3 °F 30.05 in Calm     92% 0.00 in 0 W/m2
23:56 65.4 °F 63.0 °F 30.04 in Calm     92% 0.00 in 0 W/m2
Country Meadow, Clay, NY, USA
Compliments of Weather Underground - 2 mb